Terminal Aerodrome Forecast
Issued by NWS Mt. Holly, NJ

Home | Current Version | Previous Version | Text Only | Print | Product List | Glossary On
Versions: 1 2 3 4 5 6 7 8 9 10 11 12 13 14 15 16
489
FTUS41 KPHI 060559
TAFRDG
TAF
KRDG 060559Z 0606/0706 VRB02KT P6SM BKN250
     FM061600 09006KT P6SM OVC080
     FM062000 11012KT 6SM -RA BKN030 OVC060
     FM062200 10009KT 4SM -RA BR OVC015
     FM070000 07005KT 1 1/2SM RASN BR OVC007
     FM070300 05007KT 2SM -RA BR OVC004=

USA.gov is the U.S. government's official web portal to all federal, state and local government web resources and services.